sensor_id;sensor_type;location;lat;lon;timestamp;P1;durP1;ratioP1;P2;durP2;ratioP2
13999;SDS011;7075;53.574;10.054;2023-07-28T00:01:07;1.93;;;1.83;;
13999;SDS011;7075;53.574;10.054;2023-07-28T00:03:33;1.70;;;1.60;;
13999;SDS011;7075;53.574;10.054;2023-07-28T00:05:58;2.60;;;2.00;;
13999;SDS011;7075;53.574;10.054;2023-07-28T00:08:24;1.70;;;1.60;;
13999;SDS011;7075;53.574;10.054;2023-07-28T00:10:50;2.93;;;2.40;;
13999;SDS011;7075;53.574;10.054;2023-07-28T00:13:15;2.73;;;2.10;;
13999;SDS011;7075;53.574;10.054;2023-07-28T00:15:41;2.27;;;2.07;;
13999;SDS011;7075;53.574;10.054;2023-07-28T00:18:07;4.10;;;2.00;;
13999;SDS011;7075;53.574;10.054;2023-07-28T00:20:32;2.50;;;2.10;;
13999;SDS011;7075;53.574;10.054;2023-07-28T00:22:58;1.80;;;1.70;;
13999;SDS011;7075;53.574;10.054;2023-07-28T00:25:24;1.67;;;1.57;;
13999;SDS011;7075;53.574;10.054;2023-07-28T00:27:50;1.30;;;1.20;;
13999;SDS011;7075;53.574;10.054;2023-07-28T00:30:15;1.93;;;1.73;;
13999;SDS011;7075;53.574;10.054;2023-07-28T00:32:41;1.90;;;1.80;;
13999;SDS011;7075;53.574;10.054;2023-07-28T00:35:07;1.97;;;1.50;;
13999;SDS011;7075;53.574;10.054;2023-07-28T00:37:32;1.77;;;1.67;;
13999;SDS011;7075;53.574;10.054;2023-07-28T00:39:58;1.90;;;1.73;;
13999;SDS011;7075;53.574;10.054;2023-07-28T00:42:24;1.90;;;1.70;;
13999;SDS011;7075;53.574;10.054;2023-07-28T00:44:50;1.70;;;1.60;;
13999;SDS011;7075;53.574;10.054;2023-07-28T00:47:15;1.50;;;1.40;;
13999;SDS011;7075;53.574;10.054;2023-07-28T00:49:41;1.60;;;1.50;;
13999;SDS011;7075;53.574;10.054;2023-07-28T00:52:07;3.40;;;2.10;;
13999;SDS011;7075;53.574;10.054;2023-07-28T00:54:33;2.00;;;1.80;;
13999;SDS011;7075;53.574;10.054;2023-07-28T00:57:00;2.07;;;1.87;;
13999;SDS011;7075;53.574;10.054;2023-07-28T00:59:27;1.63;;;1.53;;
13999;SDS011;7075;53.574;10.054;2023-07-28T01:01:52;1.50;;;1.40;;
13999;SDS011;7075;53.574;10.054;2023-07-28T01:04:18;1.60;;;1.50;;
13999;SDS011;7075;53.574;10.054;2023-07-28T01:09:18;3.43;;;1.70;;
13999;SDS011;7075;53.574;10.054;2023-07-28T01:11:56;1.83;;;1.73;;
13999;SDS011;7075;53.574;10.054;2023-07-28T01:14:23;3.90;;;1.60;;
13999;SDS011;7075;53.574;10.054;2023-07-28T01:16:50;1.30;;;1.20;;
13999;SDS011;7075;53.574;10.054;2023-07-28T01:19:20;2.20;;;1.80;;
13999;SDS011;7075;53.574;10.054;2023-07-28T01:21:53;1.50;;;1.40;;
13999;SDS011;7075;53.574;10.054;2023-07-28T01:24:42;1.60;;;1.50;;
13999;SDS011;7075;53.574;10.054;2023-07-28T01:27:32;1.70;;;1.60;;
13999;SDS011;7075;53.574;10.054;2023-07-28T01:29:58;1.50;;;1.30;;
13999;SDS011;7075;53.574;10.054;2023-07-28T01:32:24;1.47;;;1.37;;
13999;SDS011;7075;53.574;10.054;2023-07-28T01:34:49;1.53;;;1.43;;
13999;SDS011;7075;53.574;10.054;2023-07-28T01:37:15;1.53;;;1.43;;
13999;SDS011;7075;53.574;10.054;2023-07-28T01:39:55;1.50;;;1.40;;
13999;SDS011;7075;53.574;10.054;2023-07-28T01:42:22;1.20;;;1.10;;
13999;SDS011;7075;53.574;10.054;2023-07-28T01:44:48;1.10;;;1.10;;
13999;SDS011;7075;53.574;10.054;2023-07-28T01:47:14;1.30;;;1.20;;
13999;SDS011;7075;53.574;10.054;2023-07-28T01:49:40;1.50;;;1.07;;
13999;SDS011;7075;53.574;10.054;2023-07-28T01:52:06;1.40;;;1.30;;
13999;SDS011;7075;53.574;10.054;2023-07-28T01:54:31;1.40;;;1.30;;
13999;SDS011;7075;53.574;10.054;2023-07-28T01:56:57;1.10;;;1.10;;
13999;SDS011;7075;53.574;10.054;2023-07-28T01:59:29;1.50;;;1.40;;
13999;SDS011;7075;53.574;10.054;2023-07-28T02:01:54;1.80;;;1.60;;
13999;SDS011;7075;53.574;10.054;2023-07-28T02:04:20;2.60;;;1.30;;
13999;SDS011;7075;53.574;10.054;2023-07-28T02:06:46;2.53;;;1.70;;
13999;SDS011;7075;53.574;10.054;2023-07-28T02:09:11;1.53;;;1.43;;
13999;SDS011;7075;53.574;10.054;2023-07-28T02:11:37;2.57;;;1.47;;
13999;SDS011;7075;53.574;10.054;2023-07-28T02:14:02;1.00;;;1.00;;
13999;SDS011;7075;53.574;10.054;2023-07-28T02:16:28;1.20;;;1.10;;
13999;SDS011;7075;53.574;10.054;2023-07-28T02:18:55;1.80;;;1.70;;
13999;SDS011;7075;53.574;10.054;2023-07-28T02:21:21;1.13;;;1.10;;
13999;SDS011;7075;53.574;10.054;2023-07-28T02:23:48;1.30;;;1.20;;
13999;SDS011;7075;53.574;10.054;2023-07-28T02:26:14;1.70;;;1.60;;
13999;SDS011;7075;53.574;10.054;2023-07-28T02:28:40;1.60;;;1.50;;
13999;SDS011;7075;53.574;10.054;2023-07-28T02:31:05;2.73;;;1.70;;
13999;SDS011;7075;53.574;10.054;2023-07-28T02:33:31;1.70;;;1.60;;
13999;SDS011;7075;53.574;10.054;2023-07-28T02:36:00;1.63;;;1.53;;
13999;SDS011;7075;53.574;10.054;2023-07-28T02:38:26;1.87;;;1.77;;
13999;SDS011;7075;53.574;10.054;2023-07-28T02:40:52;2.93;;;1.60;;
13999;SDS011;7075;53.574;10.054;2023-07-28T02:43:18;1.80;;;1.70;;
13999;SDS011;7075;53.574;10.054;2023-07-28T02:45:48;2.23;;;1.50;;
13999;SDS011;7075;53.574;10.054;2023-07-28T02:48:18;2.20;;;1.80;;
13999;SDS011;7075;53.574;10.054;2023-07-28T02:50:46;3.60;;;1.70;;
13999;SDS011;7075;53.574;10.054;2023-07-28T02:53:12;4.50;;;2.27;;
13999;SDS011;7075;53.574;10.054;2023-07-28T02:55:42;2.30;;;2.10;;
13999;SDS011;7075;53.574;10.054;2023-07-28T02:58:09;2.30;;;2.07;;
13999;SDS011;7075;53.574;10.054;2023-07-28T03:00:41;2.97;;;2.00;;
13999;SDS011;7075;53.574;10.054;2023-07-28T03:03:17;2.07;;;1.90;;
13999;SDS011;7075;53.574;10.054;2023-07-28T03:05:43;2.87;;;2.23;;
13999;SDS011;7075;53.574;10.054;2023-07-28T03:08:09;2.60;;;2.40;;
13999;SDS011;7075;53.574;10.054;2023-07-28T03:10:34;2.63;;;2.40;;
13999;SDS011;7075;53.574;10.054;2023-07-28T03:13:00;2.60;;;2.27;;
13999;SDS011;7075;53.574;10.054;2023-07-28T03:15:26;2.40;;;2.20;;
13999;SDS011;7075;53.574;10.054;2023-07-28T03:17:52;2.40;;;2.20;;
13999;SDS011;7075;53.574;10.054;2023-07-28T03:20:19;2.00;;;1.80;;
13999;SDS011;7075;53.574;10.054;2023-07-28T03:22:46;2.20;;;2.00;;
13999;SDS011;7075;53.574;10.054;2023-07-28T03:25:12;2.07;;;1.70;;
13999;SDS011;7075;53.574;10.054;2023-07-28T03:27:37;1.80;;;1.70;;
13999;SDS011;7075;53.574;10.054;2023-07-28T03:30:03;1.73;;;1.63;;
13999;SDS011;7075;53.574;10.054;2023-07-28T03:32:31;1.90;;;1.70;;
13999;SDS011;7075;53.574;10.054;2023-07-28T03:34:57;1.87;;;1.67;;
13999;SDS011;7075;53.574;10.054;2023-07-28T03:37:23;1.83;;;1.73;;
13999;SDS011;7075;53.574;10.054;2023-07-28T03:39:48;2.87;;;1.53;;
13999;SDS011;7075;53.574;10.054;2023-07-28T03:42:14;1.50;;;1.40;;
13999;SDS011;7075;53.574;10.054;2023-07-28T03:44:40;1.67;;;1.57;;
13999;SDS011;7075;53.574;10.054;2023-07-28T03:49:51;1.83;;;1.73;;
13999;SDS011;7075;53.574;10.054;2023-07-28T03:52:16;1.40;;;1.30;;
13999;SDS011;7075;53.574;10.054;2023-07-28T03:54:42;1.33;;;1.23;;
13999;SDS011;7075;53.574;10.054;2023-07-28T03:57:08;1.43;;;1.33;;
13999;SDS011;7075;53.574;10.054;2023-07-28T03:59:34;1.87;;;1.50;;
13999;SDS011;7075;53.574;10.054;2023-07-28T04:02:00;1.40;;;1.30;;
13999;SDS011;7075;53.574;10.054;2023-07-28T04:04:25;1.50;;;1.40;;
13999;SDS011;7075;53.574;10.054;2023-07-28T04:06:51;1.80;;;1.70;;
13999;SDS011;7075;53.574;10.054;2023-07-28T04:09:21;1.10;;;1.10;;
13999;SDS011;7075;53.574;10.054;2023-07-28T04:11:48;1.30;;;1.20;;
13999;SDS011;7075;53.574;10.054;2023-07-28T04:14:14;1.40;;;1.30;;
13999;SDS011;7075;53.574;10.054;2023-07-28T04:16:39;1.20;;;1.10;;
13999;SDS011;7075;53.574;10.054;2023-07-28T04:19:05;1.87;;;1.40;;
13999;SDS011;7075;53.574;10.054;2023-07-28T04:21:31;1.20;;;1.20;;
13999;SDS011;7075;53.574;10.054;2023-07-28T04:23:56;2.07;;;1.30;;
13999;SDS011;7075;53.574;10.054;2023-07-28T04:26:23;2.70;;;1.10;;
13999;SDS011;7075;53.574;10.054;2023-07-28T04:28:49;1.60;;;1.30;;
13999;SDS011;7075;53.574;10.054;2023-07-28T04:31:18;1.37;;;1.27;;
13999;SDS011;7075;53.574;10.054;2023-07-28T04:33:44;2.27;;;1.50;;
13999;SDS011;7075;53.574;10.054;2023-07-28T04:36:10;1.43;;;1.33;;
13999;SDS011;7075;53.574;10.054;2023-07-28T04:38:35;4.30;;;1.87;;
13999;SDS011;7075;53.574;10.054;2023-07-28T04:41:01;1.93;;;1.83;;
13999;SDS011;7075;53.574;10.054;2023-07-28T04:43:27;1.80;;;1.70;;
13999;SDS011;7075;53.574;10.054;2023-07-28T04:45:53;3.30;;;1.90;;
13999;SDS011;7075;53.574;10.054;2023-07-28T04:48:19;1.90;;;1.80;;
13999;SDS011;7075;53.574;10.054;2023-07-28T04:50:44;1.83;;;1.73;;
13999;SDS011;7075;53.574;10.054;2023-07-28T04:53:10;1.70;;;1.60;;
13999;SDS011;7075;53.574;10.054;2023-07-28T04:55:36;2.10;;;1.90;;
13999;SDS011;7075;53.574;10.054;2023-07-28T04:58:02;1.90;;;1.80;;
13999;SDS011;7075;53.574;10.054;2023-07-28T05:00:27;2.57;;;2.37;;
13999;SDS011;7075;53.574;10.054;2023-07-28T05:02:53;2.10;;;2.00;;
13999;SDS011;7075;53.574;10.054;2023-07-28T05:05:19;2.03;;;1.93;;
13999;SDS011;7075;53.574;10.054;2023-07-28T05:07:44;1.97;;;1.87;;
13999;SDS011;7075;53.574;10.054;2023-07-28T05:10:10;3.87;;;2.10;;
13999;SDS011;7075;53.574;10.054;2023-07-28T05:12:36;3.93;;;1.90;;
13999;SDS011;7075;53.574;10.054;2023-07-28T05:15:01;2.47;;;2.10;;
13999;SDS011;7075;53.574;10.054;2023-07-28T05:17:27;1.77;;;1.67;;
13999;SDS011;7075;53.574;10.054;2023-07-28T05:19:53;2.27;;;2.07;;
13999;SDS011;7075;53.574;10.054;2023-07-28T05:22:18;2.73;;;2.20;;
13999;SDS011;7075;53.574;10.054;2023-07-28T05:24:44;1.93;;;1.83;;
13999;SDS011;7075;53.574;10.054;2023-07-28T05:27:10;1.87;;;1.77;;
13999;SDS011;7075;53.574;10.054;2023-07-28T05:29:36;1.97;;;1.87;;
13999;SDS011;7075;53.574;10.054;2023-07-28T05:32:02;2.27;;;2.07;;
13999;SDS011;7075;53.574;10.054;2023-07-28T05:34:29;1.67;;;1.57;;
13999;SDS011;7075;53.574;10.054;2023-07-28T05:36:55;1.80;;;1.70;;
13999;SDS011;7075;53.574;10.054;2023-07-28T05:39:22;1.67;;;1.57;;
13999;SDS011;7075;53.574;10.054;2023-07-28T05:41:48;2.00;;;1.33;;
13999;SDS011;7075;53.574;10.054;2023-07-28T05:44:14;1.77;;;1.67;;
13999;SDS011;7075;53.574;10.054;2023-07-28T05:46:40;2.80;;;2.17;;
13999;SDS011;7075;53.574;10.054;2023-07-28T05:49:08;2.10;;;1.90;;
13999;SDS011;7075;53.574;10.054;2023-07-28T05:51:35;2.00;;;1.90;;
13999;SDS011;7075;53.574;10.054;2023-07-28T05:54:01;1.47;;;1.37;;
13999;SDS011;7075;53.574;10.054;2023-07-28T05:56:27;1.90;;;1.80;;
13999;SDS011;7075;53.574;10.054;2023-07-28T05:59:01;2.07;;;1.97;;
13999;SDS011;7075;53.574;10.054;2023-07-28T06:01:27;3.30;;;1.80;;
13999;SDS011;7075;53.574;10.054;2023-07-28T06:03:54;2.00;;;1.90;;
13999;SDS011;7075;53.574;10.054;2023-07-28T06:06:25;1.77;;;1.67;;
13999;SDS011;7075;53.574;10.054;2023-07-28T06:08:52;1.77;;;1.50;;
13999;SDS011;7075;53.574;10.054;2023-07-28T06:11:19;2.00;;;1.83;;
13999;SDS011;7075;53.574;10.054;2023-07-28T06:13:46;2.27;;;2.07;;
13999;SDS011;7075;53.574;10.054;2023-07-28T06:16:15;2.87;;;1.70;;
13999;SDS011;7075;53.574;10.054;2023-07-28T06:18:44;1.87;;;1.70;;
13999;SDS011;7075;53.574;10.054;2023-07-28T06:21:11;1.83;;;1.50;;
13999;SDS011;7075;53.574;10.054;2023-07-28T06:23:37;1.50;;;1.40;;
13999;SDS011;7075;53.574;10.054;2023-07-28T06:26:04;2.20;;;1.70;;
13999;SDS011;7075;53.574;10.054;2023-07-28T06:28:30;2.00;;;1.90;;
13999;SDS011;7075;53.574;10.054;2023-07-28T06:30:57;1.40;;;1.30;;
13999;SDS011;7075;53.574;10.054;2023-07-28T06:33:24;1.70;;;1.60;;
13999;SDS011;7075;53.574;10.054;2023-07-28T06:35:50;1.60;;;1.50;;
13999;SDS011;7075;53.574;10.054;2023-07-28T06:38:17;1.70;;;1.60;;
13999;SDS011;7075;53.574;10.054;2023-07-28T06:40:44;1.73;;;1.60;;
13999;SDS011;7075;53.574;10.054;2023-07-28T06:43:10;3.40;;;1.83;;
13999;SDS011;7075;53.574;10.054;2023-07-28T06:45:35;1.77;;;1.67;;
13999;SDS011;7075;53.574;10.054;2023-07-28T06:48:01;1.57;;;1.47;;
13999;SDS011;7075;53.574;10.054;2023-07-28T06:50:28;1.50;;;1.40;;
13999;SDS011;7075;53.574;10.054;2023-07-28T06:52:54;1.70;;;1.60;;
13999;SDS011;7075;53.574;10.054;2023-07-28T06:55:19;1.90;;;1.80;;
13999;SDS011;7075;53.574;10.054;2023-07-28T06:57:46;2.30;;;1.20;;
13999;SDS011;7075;53.574;10.054;2023-07-28T07:00:15;1.80;;;1.60;;
13999;SDS011;7075;53.574;10.054;2023-07-28T07:02:43;2.10;;;1.43;;
13999;SDS011;7075;53.574;10.054;2023-07-28T07:05:10;0.90;;;0.90;;
13999;SDS011;7075;53.574;10.054;2023-07-28T07:07:37;1.47;;;1.33;;
13999;SDS011;7075;53.574;10.054;2023-07-28T07:10:04;1.63;;;1.53;;
13999;SDS011;7075;53.574;10.054;2023-07-28T07:12:31;1.50;;;1.33;;
13999;SDS011;7075;53.574;10.054;2023-07-28T07:14:58;1.83;;;1.40;;
13999;SDS011;7075;53.574;10.054;2023-07-28T07:17:24;1.40;;;1.30;;
13999;SDS011;7075;53.574;10.054;2023-07-28T07:19:51;1.90;;;1.80;;
13999;SDS011;7075;53.574;10.054;2023-07-28T07:22:17;3.27;;;1.50;;
13999;SDS011;7075;53.574;10.054;2023-07-28T07:24:46;1.70;;;1.50;;
13999;SDS011;7075;53.574;10.054;2023-07-28T07:27:12;2.20;;;2.00;;
13999;SDS011;7075;53.574;10.054;2023-07-28T07:29:38;1.87;;;1.27;;
13999;SDS011;7075;53.574;10.054;2023-07-28T07:32:06;3.00;;;1.90;;
13999;SDS011;7075;53.574;10.054;2023-07-28T07:34:33;2.40;;;1.40;;
13999;SDS011;7075;53.574;10.054;2023-07-28T07:36:59;2.53;;;1.30;;
13999;SDS011;7075;53.574;10.054;2023-07-28T07:39:25;1.67;;;1.10;;
13999;SDS011;7075;53.574;10.054;2023-07-28T07:41:51;1.47;;;1.37;;
13999;SDS011;7075;53.574;10.054;2023-07-28T07:44:16;1.03;;;1.03;;
13999;SDS011;7075;53.574;10.054;2023-07-28T07:46:43;1.20;;;1.10;;
13999;SDS011;7075;53.574;10.054;2023-07-28T07:49:08;1.57;;;1.47;;
13999;SDS011;7075;53.574;10.054;2023-07-28T07:51:34;1.30;;;1.20;;
13999;SDS011;7075;53.574;10.054;2023-07-28T07:53:59;1.00;;;1.00;;
13999;SDS011;7075;53.574;10.054;2023-07-28T07:56:28;1.80;;;1.30;;
13999;SDS011;7075;53.574;10.054;2023-07-28T07:58:53;0.90;;;0.90;;
13999;SDS011;7075;53.574;10.054;2023-07-28T08:01:19;1.20;;;1.10;;
13999;SDS011;7075;53.574;10.054;2023-07-28T08:03:45;1.63;;;1.30;;
13999;SDS011;7075;53.574;10.054;2023-07-28T08:06:11;1.20;;;1.10;;
13999;SDS011;7075;53.574;10.054;2023-07-28T08:08:37;1.30;;;1.20;;
13999;SDS011;7075;53.574;10.054;2023-07-28T08:11:05;1.60;;;1.20;;
13999;SDS011;7075;53.574;10.054;2023-07-28T08:13:32;1.57;;;1.30;;
13999;SDS011;7075;53.574;10.054;2023-07-28T08:15:58;1.67;;;1.20;;
13999;SDS011;7075;53.574;10.054;2023-07-28T08:18:23;1.27;;;1.17;;
13999;SDS011;7075;53.574;10.054;2023-07-28T08:20:49;1.03;;;1.03;;
13999;SDS011;7075;53.574;10.054;2023-07-28T08:23:15;1.90;;;1.80;;
13999;SDS011;7075;53.574;10.054;2023-07-28T08:25:42;1.70;;;1.60;;
13999;SDS011;7075;53.574;10.054;2023-07-28T08:28:08;1.40;;;1.30;;
13999;SDS011;7075;53.574;10.054;2023-07-28T08:30:34;1.87;;;1.50;;
13999;SDS011;7075;53.574;10.054;2023-07-28T08:32:59;2.30;;;1.53;;
13999;SDS011;7075;53.574;10.054;2023-07-28T08:35:25;1.23;;;1.17;;
13999;SDS011;7075;53.574;10.054;2023-07-28T08:37:50;1.50;;;1.40;;
13999;SDS011;7075;53.574;10.054;2023-07-28T08:40:16;1.53;;;1.43;;
13999;SDS011;7075;53.574;10.054;2023-07-28T08:42:42;1.73;;;1.53;;
13999;SDS011;7075;53.574;10.054;2023-07-28T08:45:09;1.40;;;1.30;;
13999;SDS011;7075;53.574;10.054;2023-07-28T08:47:35;2.37;;;1.10;;
13999;SDS011;7075;53.574;10.054;2023-07-28T08:50:01;1.43;;;1.33;;
13999;SDS011;7075;53.574;10.054;2023-07-28T08:52:26;1.57;;;1.47;;
13999;SDS011;7075;53.574;10.054;2023-07-28T08:54:53;3.47;;;1.50;;
13999;SDS011;7075;53.574;10.054;2023-07-28T08:57:20;1.30;;;1.20;;
13999;SDS011;7075;53.574;10.054;2023-07-28T08:59:47;1.30;;;1.13;;
13999;SDS011;7075;53.574;10.054;2023-07-28T09:02:14;1.47;;;1.30;;
13999;SDS011;7075;53.574;10.054;2023-07-28T09:04:42;1.33;;;1.13;;
13999;SDS011;7075;53.574;10.054;2023-07-28T09:07:08;1.00;;;0.90;;
13999;SDS011;7075;53.574;10.054;2023-07-28T09:09:34;1.23;;;1.13;;
13999;SDS011;7075;53.574;10.054;2023-07-28T09:12:04;1.80;;;1.37;;
13999;SDS011;7075;53.574;10.054;2023-07-28T09:14:33;1.50;;;1.30;;
13999;SDS011;7075;53.574;10.054;2023-07-28T09:17:11;2.47;;;1.43;;
13999;SDS011;7075;53.574;10.054;2023-07-28T09:19:53;1.60;;;1.50;;
13999;SDS011;7075;53.574;10.054;2023-07-28T09:22:20;1.77;;;1.50;;
13999;SDS011;7075;53.574;10.054;2023-07-28T09:24:45;1.43;;;1.33;;
13999;SDS011;7075;53.574;10.054;2023-07-28T09:27:26;1.07;;;1.07;;
13999;SDS011;7075;53.574;10.054;2023-07-28T09:29:55;1.40;;;1.30;;
13999;SDS011;7075;53.574;10.054;2023-07-28T09:32:30;1.30;;;1.20;;
13999;SDS011;7075;53.574;10.054;2023-07-28T09:35:06;1.40;;;1.30;;
13999;SDS011;7075;53.574;10.054;2023-07-28T09:37:39;1.33;;;1.23;;
13999;SDS011;7075;53.574;10.054;2023-07-28T09:40:10;1.27;;;1.17;;
13999;SDS011;7075;53.574;10.054;2023-07-28T09:42:42;1.30;;;1.20;;
13999;SDS011;7075;53.574;10.054;2023-07-28T09:45:10;1.30;;;1.20;;
13999;SDS011;7075;53.574;10.054;2023-07-28T09:47:37;1.40;;;1.20;;
13999;SDS011;7075;53.574;10.054;2023-07-28T09:50:05;1.17;;;1.07;;
13999;SDS011;7075;53.574;10.054;2023-07-28T09:53:08;1.77;;;1.40;;
13999;SDS011;7075;53.574;10.054;2023-07-28T09:55:28;2.50;;;1.20;;
13999;SDS011;7075;53.574;10.054;2023-07-28T09:57:54;1.30;;;1.20;;
13999;SDS011;7075;53.574;10.054;2023-07-28T10:00:23;1.40;;;1.33;;
13999;SDS011;7075;53.574;10.054;2023-07-28T10:02:49;1.50;;;1.30;;
13999;SDS011;7075;53.574;10.054;2023-07-28T10:05:16;1.33;;;1.23;;
13999;SDS011;7075;53.574;10.054;2023-07-28T10:07:43;1.10;;;1.10;;
13999;SDS011;7075;53.574;10.054;2023-07-28T10:10:10;2.90;;;1.20;;
13999;SDS011;7075;53.574;10.054;2023-07-28T10:12:41;1.20;;;1.10;;
13999;SDS011;7075;53.574;10.054;2023-07-28T10:15:12;1.87;;;1.73;;
13999;SDS011;7075;53.574;10.054;2023-07-28T10:17:45;2.57;;;1.20;;
13999;SDS011;7075;53.574;10.054;2023-07-28T10:25:40;5.83;;;1.87;;
13999;SDS011;7075;53.574;10.054;2023-07-28T10:30:57;1.40;;;1.30;;
13999;SDS011;7075;53.574;10.054;2023-07-28T10:33:37;1.40;;;1.30;;
13999;SDS011;7075;53.574;10.054;2023-07-28T10:36:11;2.00;;;1.50;;
13999;SDS011;7075;53.574;10.054;2023-07-28T10:38:38;1.50;;;1.40;;
13999;SDS011;7075;53.574;10.054;2023-07-28T10:41:09;2.57;;;1.73;;
13999;SDS011;7075;53.574;10.054;2023-07-28T10:43:37;1.47;;;1.37;;
13999;SDS011;7075;53.574;10.054;2023-07-28T10:46:07;1.53;;;1.30;;
13999;SDS011;7075;53.574;10.054;2023-07-28T10:48:35;1.33;;;1.23;;
13999;SDS011;7075;53.574;10.054;2023-07-28T10:51:02;1.37;;;1.30;;
13999;SDS011;7075;53.574;10.054;2023-07-28T10:53:27;1.60;;;1.50;;
13999;SDS011;7075;53.574;10.054;2023-07-28T10:55:53;3.53;;;1.63;;
13999;SDS011;7075;53.574;10.054;2023-07-28T10:58:20;1.37;;;1.27;;
13999;SDS011;7075;53.574;10.054;2023-07-28T11:00:47;1.70;;;1.23;;
13999;SDS011;7075;53.574;10.054;2023-07-28T11:03:14;1.60;;;1.10;;
13999;SDS011;7075;53.574;10.054;2023-07-28T11:05:41;3.27;;;1.50;;
13999;SDS011;7075;53.574;10.054;2023-07-28T11:08:08;1.80;;;1.70;;
13999;SDS011;7075;53.574;10.054;2023-07-28T11:10:33;1.93;;;1.33;;
13999;SDS011;7075;53.574;10.054;2023-07-28T11:13:01;1.77;;;1.30;;
13999;SDS011;7075;53.574;10.054;2023-07-28T11:15:27;1.30;;;1.20;;
13999;SDS011;7075;53.574;10.054;2023-07-28T11:17:54;1.50;;;1.40;;
13999;SDS011;7075;53.574;10.054;2023-07-28T11:20:27;4.63;;;1.60;;
13999;SDS011;7075;53.574;10.054;2023-07-28T11:23:01;1.83;;;1.40;;
13999;SDS011;7075;53.574;10.054;2023-07-28T11:25:31;1.10;;;1.00;;
13999;SDS011;7075;53.574;10.054;2023-07-28T11:28:02;1.67;;;1.43;;
13999;SDS011;7075;53.574;10.054;2023-07-28T11:30:30;1.40;;;1.30;;
13999;SDS011;7075;53.574;10.054;2023-07-28T11:32:58;1.57;;;1.47;;
13999;SDS011;7075;53.574;10.054;2023-07-28T11:35:25;1.20;;;1.10;;
13999;SDS011;7075;53.574;10.054;2023-07-28T11:37:52;1.47;;;1.37;;
13999;SDS011;7075;53.574;10.054;2023-07-28T11:40:20;1.50;;;1.40;;
13999;SDS011;7075;53.574;10.054;2023-07-28T11:42:51;1.17;;;1.10;;
13999;SDS011;7075;53.574;10.054;2023-07-28T11:45:19;1.50;;;1.40;;
13999;SDS011;7075;53.574;10.054;2023-07-28T11:48:07;1.23;;;1.13;;
13999;SDS011;7075;53.574;10.054;2023-07-28T11:50:37;1.40;;;1.30;;
13999;SDS011;7075;53.574;10.054;2023-07-28T11:53:06;1.50;;;1.40;;
13999;SDS011;7075;53.574;10.054;2023-07-28T11:55:34;1.50;;;1.40;;
13999;SDS011;7075;53.574;10.054;2023-07-28T11:58:03;1.33;;;1.23;;
13999;SDS011;7075;53.574;10.054;2023-07-28T12:00:31;1.10;;;1.10;;
13999;SDS011;7075;53.574;10.054;2023-07-28T12:03:03;1.00;;;1.00;;
13999;SDS011;7075;53.574;10.054;2023-07-28T12:05:31;1.43;;;1.33;;
13999;SDS011;7075;53.574;10.054;2023-07-28T12:07:59;3.87;;;2.00;;
13999;SDS011;7075;53.574;10.054;2023-07-28T12:10:27;1.30;;;1.20;;
13999;SDS011;7075;53.574;10.054;2023-07-28T12:12:54;1.30;;;1.20;;
13999;SDS011;7075;53.574;10.054;2023-07-28T12:15:21;0.90;;;0.90;;
13999;SDS011;7075;53.574;10.054;2023-07-28T12:20:42;1.37;;;1.20;;
13999;SDS011;7075;53.574;10.054;2023-07-28T12:23:14;1.40;;;1.30;;
13999;SDS011;7075;53.574;10.054;2023-07-28T12:25:41;1.17;;;1.07;;
13999;SDS011;7075;53.574;10.054;2023-07-28T12:28:07;1.27;;;1.20;;
13999;SDS011;7075;53.574;10.054;2023-07-28T12:30:33;1.20;;;1.10;;
13999;SDS011;7075;53.574;10.054;2023-07-28T12:33:00;1.60;;;1.50;;
13999;SDS011;7075;53.574;10.054;2023-07-28T12:35:26;1.27;;;1.20;;
13999;SDS011;7075;53.574;10.054;2023-07-28T12:38:06;1.10;;;1.10;;
13999;SDS011;7075;53.574;10.054;2023-07-28T12:40:33;1.17;;;1.10;;
13999;SDS011;7075;53.574;10.054;2023-07-28T12:42:59;1.50;;;1.20;;
13999;SDS011;7075;53.574;10.054;2023-07-28T12:45:26;1.13;;;1.10;;
13999;SDS011;7075;53.574;10.054;2023-07-28T12:47:52;1.40;;;1.30;;
13999;SDS011;7075;53.574;10.054;2023-07-28T12:50:18;0.90;;;0.90;;
13999;SDS011;7075;53.574;10.054;2023-07-28T12:52:45;1.00;;;1.00;;
13999;SDS011;7075;53.574;10.054;2023-07-28T12:55:11;1.40;;;1.27;;
13999;SDS011;7075;53.574;10.054;2023-07-28T12:57:37;1.20;;;1.10;;
13999;SDS011;7075;53.574;10.054;2023-07-28T13:00:03;1.20;;;1.10;;
13999;SDS011;7075;53.574;10.054;2023-07-28T13:02:37;5.40;;;1.40;;
13999;SDS011;7075;53.574;10.054;2023-07-28T13:05:07;1.10;;;1.10;;
13999;SDS011;7075;53.574;10.054;2023-07-28T13:07:35;2.30;;;1.43;;
13999;SDS011;7075;53.574;10.054;2023-07-28T13:10:01;1.10;;;1.10;;
13999;SDS011;7075;53.574;10.054;2023-07-28T13:12:28;0.90;;;0.90;;
13999;SDS011;7075;53.574;10.054;2023-07-28T13:14:54;1.03;;;1.03;;
13999;SDS011;7075;53.574;10.054;2023-07-28T13:17:19;1.13;;;1.03;;
13999;SDS011;7075;53.574;10.054;2023-07-28T13:19:44;1.23;;;1.13;;
13999;SDS011;7075;53.574;10.054;2023-07-28T13:22:10;1.00;;;0.80;;
13999;SDS011;7075;53.574;10.054;2023-07-28T13:24:35;1.40;;;1.03;;
13999;SDS011;7075;53.574;10.054;2023-07-28T13:27:01;0.87;;;0.87;;
13999;SDS011;7075;53.574;10.054;2023-07-28T13:29:27;1.20;;;1.10;;
13999;SDS011;7075;53.574;10.054;2023-07-28T13:31:57;1.07;;;0.97;;
13999;SDS011;7075;53.574;10.054;2023-07-28T13:34:26;0.80;;;0.80;;
13999;SDS011;7075;53.574;10.054;2023-07-28T13:36:53;1.30;;;1.20;;
13999;SDS011;7075;53.574;10.054;2023-07-28T13:39:21;1.03;;;1.00;;
13999;SDS011;7075;53.574;10.054;2023-07-28T13:41:48;1.53;;;0.90;;
13999;SDS011;7075;53.574;10.054;2023-07-28T13:44:13;1.10;;;1.07;;
13999;SDS011;7075;53.574;10.054;2023-07-28T13:46:40;1.30;;;1.20;;
13999;SDS011;7075;53.574;10.054;2023-07-28T13:49:05;1.20;;;1.10;;
13999;SDS011;7075;53.574;10.054;2023-07-28T13:51:31;1.03;;;1.00;;
13999;SDS011;7075;53.574;10.054;2023-07-28T13:53:57;1.33;;;1.20;;
13999;SDS011;7075;53.574;10.054;2023-07-28T13:56:23;1.20;;;1.10;;
13999;SDS011;7075;53.574;10.054;2023-07-28T13:58:49;1.10;;;1.10;;
13999;SDS011;7075;53.574;10.054;2023-07-28T14:01:16;0.83;;;0.83;;
13999;SDS011;7075;53.574;10.054;2023-07-28T14:03:41;1.40;;;1.03;;
13999;SDS011;7075;53.574;10.054;2023-07-28T14:06:07;1.53;;;1.03;;
13999;SDS011;7075;53.574;10.054;2023-07-28T14:08:32;1.00;;;1.00;;
13999;SDS011;7075;53.574;10.054;2023-07-28T14:10:58;5.00;;;1.33;;
13999;SDS011;7075;53.574;10.054;2023-07-28T14:13:24;0.73;;;0.73;;
13999;SDS011;7075;53.574;10.054;2023-07-28T14:15:50;1.10;;;1.10;;
13999;SDS011;7075;53.574;10.054;2023-07-28T14:18:18;0.80;;;0.80;;
13999;SDS011;7075;53.574;10.054;2023-07-28T14:20:45;1.00;;;1.00;;
13999;SDS011;7075;53.574;10.054;2023-07-28T14:23:21;0.93;;;0.83;;
13999;SDS011;7075;53.574;10.054;2023-07-28T14:25:49;1.17;;;0.97;;
13999;SDS011;7075;53.574;10.054;2023-07-28T14:28:15;1.13;;;1.03;;
13999;SDS011;7075;53.574;10.054;2023-07-28T14:30:42;1.80;;;0.90;;
13999;SDS011;7075;53.574;10.054;2023-07-28T14:33:12;0.83;;;0.83;;
13999;SDS011;7075;53.574;10.054;2023-07-28T14:35:40;0.90;;;0.90;;
13999;SDS011;7075;53.574;10.054;2023-07-28T14:38:07;1.27;;;0.97;;
13999;SDS011;7075;53.574;10.054;2023-07-28T14:40:35;1.00;;;1.00;;
13999;SDS011;7075;53.574;10.054;2023-07-28T14:43:03;1.20;;;1.10;;
13999;SDS011;7075;53.574;10.054;2023-07-28T14:45:30;2.10;;;1.10;;
13999;SDS011;7075;53.574;10.054;2023-07-28T14:47:55;1.30;;;1.10;;
13999;SDS011;7075;53.574;10.054;2023-07-28T14:50:22;0.90;;;0.90;;
13999;SDS011;7075;53.574;10.054;2023-07-28T14:52:48;1.00;;;1.00;;
13999;SDS011;7075;53.574;10.054;2023-07-28T14:55:15;0.80;;;0.80;;
13999;SDS011;7075;53.574;10.054;2023-07-28T14:57:42;1.10;;;0.83;;
13999;SDS011;7075;53.574;10.054;2023-07-28T15:00:08;0.70;;;0.70;;
13999;SDS011;7075;53.574;10.054;2023-07-28T15:02:35;1.30;;;1.00;;
13999;SDS011;7075;53.574;10.054;2023-07-28T15:05:04;1.07;;;0.90;;